| time (UTC) | temp F | wind direction | speed MPH | gust MPH | rain 1hr in | rain 24hr in | rain mn in | humidity % | barometer mb |
| 20260507224557 | 78 | 55 | 4.0 | 9.0 | 0.00 | 0.00 | 0.00 | 70 | 1013.9 |
| 20260507223053 | 79 | 38 | 4.0 | 9.0 | 0.00 | 0.00 | 0.00 | 69 | 1013.7 |
| 20260507221602 | 80 | 36 | 3.0 | 8.0 | 0.00 | 0.00 | 0.00 | 69 | 1013.8 |
| 20260507220055 | 80 | 132 | 3.0 | 8.0 | 0.00 | 0.00 | 0.00 | 69 | 1013.9 |
| 20260507214557 | 80 | 47 | 4.0 | 10.0 | 0.00 | 0.00 | 0.00 | 69 | 1013.7 |
| 20260507213058 | 78 | 19 | 4.0 | 9.0 | 0.00 | 0.00 | 0.00 | 73 | 1013.8 |
| 20260507211601 | 77 | 323 | 4.0 | 9.0 | 0.00 | 0.00 | 0.00 | 72 | 1014.1 |
| 20260507210056 | 78 | 17 | 6.0 | 10.0 | 0.00 | 0.00 | 0.00 | 72 | 1014.2 |
| 20260507204554 | 77 | 40 | 4.0 | 8.0 | 0.00 | 0.00 | 0.00 | 72 | 1014.5 |
| 20260507203056 | 76 | 43 | 3.0 | 12.0 | 0.00 | 0.00 | 0.00 | 72 | 1014.6 |
| 20260507201557 | 76 | 15 | 7.0 | 12.0 | 0.00 | 0.00 | 0.00 | 72 | 1014.7 |
| 20260507200103 | 76 | 27 | 3.0 | 10.0 | 0.00 | 0.00 | 0.00 | 73 | 1015.0 |
| 20260507194557 | 75 | 30 | 5.0 | 9.0 | 0.00 | 0.00 | 0.00 | 73 | 1015.0 |
| 20260507193057 | 74 | 10 | 2.0 | 6.0 | 0.00 | 0.00 | 0.00 | 73 | 1015.3 |
| 20260507191555 | 74 | 46 | 3.0 | 9.0 | 0.00 | 0.00 | 0.00 | 74 | 1015.5 |
| 20260507190059 | 74 | 32 | 4.0 | 11.0 | 0.00 | 0.00 | 0.00 | 74 | 1015.5 |
| 20260507184555 | 72 | 34 | 3.0 | 8.0 | 0.00 | 0.00 | 0.00 | 78 | 1015.7 |
| 20260507183056 | 71 | 19 | 5.0 | 11.0 | 0.00 | 0.00 | 0.00 | 77 | 1015.8 |
| 20260507181554 | 70 | 14 | 5.0 | 11.0 | 0.00 | 0.00 | 0.00 | 77 | 1016.1 |
| 20260507180106 | 71 | 28 | 5.0 | 11.0 | 0.00 | 0.00 | 0.00 | 78 | 1016.0 |
| 20260507174625 | 70 | 360 | 7.0 | 13.0 | 0.00 | 0.00 | 0.00 | 79 | 1016.3 |
| 20260507173055 | 68 | 15 | 5.0 | 12.0 | 0.00 | 0.00 | 0.00 | 80 | 1016.4 |
| 20260507171611 | 68 | 24 | 4.0 | 10.0 | 0.00 | 0.00 | 0.00 | 80 | 1016.5 |
| 20260507170100 | 67 | 17 | 6.0 | 11.0 | 0.00 | 0.00 | 0.00 | 80 | 1016.5 |
| 20260507164556 | 67 | 26 | 5.0 | 12.0 | 0.00 | 0.00 | 0.00 | 81 | 1016.3 |
| 20260507163055 | 66 | 9 | 4.0 | 11.0 | 0.00 | 0.00 | 0.00 | 82 | 1016.5 |
| 20260507161557 | 66 | 352 | 5.0 | 12.0 | 0.00 | 0.00 | 0.00 | 82 | 1016.4 |
| 20260507160116 | 65 | 57 | 6.0 | 11.0 | 0.00 | 0.00 | 0.00 | 83 | 1016.3 |
| 20260507154554 | 65 | 48 | 6.0 | 11.0 | 0.00 | 0.00 | 0.00 | 83 | 1016.6 |
| 20260507153053 | 65 | 26 | 6.0 | 11.0 | 0.00 | 0.00 | 0.00 | 83 | 1016.6 |
| 20260507151559 | 65 | 9 | 6.0 | 12.0 | 0.00 | 0.00 | 0.00 | 83 | 1016.7 |
| 20260507150056 | 65 | 313 | 5.0 | 15.0 | 0.00 | 0.00 | 0.00 | 84 | 1016.4 |
| 20260507144556 | 65 | 55 | 8.0 | 12.0 | 0.00 | 0.00 | 0.00 | 82 | 1016.4 |
| 20260507143101 | 66 | 32 | 7.0 | 11.0 | 0.00 | 0.00 | 0.00 | 83 | 1016.0 |
| 20260507141612 | 66 | 22 | 5.0 | 11.0 | 0.00 | 0.00 | 0.00 | 84 | 1016.1 |
| 20260507140113 | 65 | 24 | 7.0 | 13.0 | 0.00 | 0.00 | 0.00 | 84 | 1015.7 |
| 20260507134600 | 65 | 29 | 6.0 | 13.0 | 0.00 | 0.00 | 0.00 | 85 | 1016.2 |
| 20260507133104 | 65 | 46 | 8.0 | 12.0 | 0.00 | 0.00 | 0.00 | 84 | 1016.2 |
| 20260507131617 | 66 | 13 | 4.0 | 10.0 | 0.00 | 0.00 | 0.00 | 84 | 1016.2 |
| 20260507130056 | 66 | 32 | 6.0 | 12.0 | 0.00 | 0.00 | 0.00 | 84 | 1016.0 |
| 20260507124602 | 67 | 39 | 4.0 | 11.0 | 0.00 | 0.00 | 0.00 | 85 | 1015.5 |
| 20260507123058 | 67 | 53 | 5.0 | 11.0 | 0.00 | 0.00 | 0.00 | 85 | 1015.2 |
| 20260507121557 | 67 | 352 | 4.0 | 9.0 | 0.00 | 0.00 | 0.00 | 85 | 1014.9 |
| 20260507120054 | 67 | 32 | 4.0 | 10.0 | 0.00 | 0.00 | 0.00 | 86 | 1014.7 |
| 20260507114554 | 67 | 13 | 3.0 | 8.0 | 0.00 | 0.00 | 0.00 | 86 | 1014.6 |
| 20260507113128 | 67 | 22 | 3.0 | 6.0 | 0.00 | 0.00 | 0.00 | 86 | 1014.2 |
| 20260507111553 | 68 | 11 | 3.0 | 8.0 | 0.00 | 0.00 | 0.00 | 85 | 1014.2 |
| 20260507110053 | 68 | 11 | 4.0 | 10.0 | 0.00 | 0.00 | 0.00 | 85 | 1014.0 |
| 20260507104602 | 68 | 25 | 4.0 | 10.0 | 0.00 | 0.00 | 0.00 | 86 | 1013.9 |
| 20260507103054 | 68 | 40 | 5.0 | 9.0 | 0.00 | 0.00 | 0.00 | 86 | 1013.9 |
| 20260507101557 | 68 | 26 | 5.0 | 11.0 | 0.00 | 0.00 | 0.00 | 85 | 1013.6 |
| 20260507100101 | 69 | 19 | 6.0 | 13.0 | 0.00 | 0.00 | 0.00 | 85 | 1013.4 |
| 20260507094606 | 69 | 23 | 5.0 | 9.0 | 0.00 | 0.00 | 0.00 | 85 | 1013.4 |
| 20260507093054 | 70 | 19 | 5.0 | 11.0 | 0.00 | 0.00 | 0.00 | 85 | 1013.2 |
| 20260507091556 | 70 | 352 | 7.0 | 13.0 | 0.00 | 0.00 | 0.00 | 84 | 1013.3 |
| 20260507090053 | 70 | 29 | 4.0 | 11.0 | 0.00 | 0.00 | 0.00 | 85 | 1013.2 |
| 20260507084600 | 70 | 34 | 4.0 | 10.0 | 0.00 | 0.00 | 0.00 | 84 | 1012.9 |
| 20260507083100 | 70 | 352 | 5.0 | 11.0 | 0.00 | 0.00 | 0.00 | 84 | 1012.8 |
| 20260507081607 | 71 | 10 | 3.0 | 11.0 | 0.00 | 0.00 | 0.00 | 84 | 1013.0 |
| 20260507080109 | 71 | 9 | 3.0 | 10.0 | 0.00 | 0.00 | 0.00 | 84 | 1012.9 |
| 20260507074606 | 71 | 9 | 7.0 | 11.0 | 0.00 | 0.00 | 0.00 | 84 | 1013.1 |
| 20260507073110 | 71 | 15 | 4.0 | 11.0 | 0.00 | 0.00 | 0.00 | 84 | 1013.2 |
| 20260507071600 | 72 | 325 | 4.0 | 9.0 | 0.00 | 0.00 | 0.00 | 83 | 1013.1 |
| 20260507070108 | 72 | 32 | 4.0 | 10.0 | 0.00 | 0.00 | 0.00 | 84 | 1013.1 |
| 20260507064605 | 72 | 9 | 6.0 | 13.0 | 0.00 | 0.00 | 0.00 | 84 | 1013.1 |
| 20260507063056 | 73 | 360 | 5.0 | 11.0 | 0.00 | 0.00 | 0.00 | 84 | 1013.1 |
| 20260507061559 | 73 | 340 | 4.0 | 8.0 | 0.00 | 0.00 | 0.00 | 85 | 1013.0 |
| 20260507060100 | 73 | 16 | 6.0 | 10.0 | 0.00 | 0.00 | 0.00 | 85 | 1012.8 |
| 20260507054556 | 73 | 13 | 5.0 | 12.0 | 0.00 | 0.00 | 0.00 | 86 | 1012.7 |
| 20260507053052 | 73 | 37 | 5.0 | 11.0 | 0.00 | 0.00 | 0.00 | 86 | 1012.8 |
| 20260507051600 | 73 | 54 | 4.0 | 9.0 | 0.00 | 0.00 | 0.00 | 87 | 1012.7 |
| 20260507050108 | 74 | 24 | 5.0 | 10.0 | 0.00 | 0.00 | 0.00 | 87 | 1012.8 |
| 20260507044558 | 75 | 9 | 6.0 | 11.0 | 0.00 | 0.00 | 0.00 | 87 | 1012.8 |
| 20260507043054 | 75 | 352 | 4.0 | 10.0 | 0.00 | 0.00 | 0.00 | 90 | 1012.9 |
| 20260507041556 | 77 | 329 | 0.0 | 2.0 | 0.00 | 0.00 | 0.00 | 93 | 1012.6 |
| 20260507040101 | 77 | 0 | 0.0 | 2.0 | 0.00 | 0.00 | 0.00 | 92 | 1012.4 |
| 20260507034559 | 77 | 234 | 0.0 | 2.0 | 0.00 | 0.00 | 0.00 | 92 | 1012.2 |
| 20260507033053 | 77 | 234 | 0.0 | 2.0 | 0.00 | 0.00 | 0.00 | 92 | 1012.0 |
| 20260507031557 | 77 | 0 | 0.0 | 2.0 | 0.00 | 0.00 | 0.00 | 91 | 1011.8 |
| 20260507024601 | 77 | 158 | 0.0 | 3.0 | 0.00 | 0.00 | 0.00 | 91 | 1011.4 |
| 20260507023054 | 77 | 0 | 0.0 | 2.0 | 0.00 | 0.00 | 0.00 | 90 | 1011.4 |
| 20260507021602 | 78 | 152 | 1.0 | 3.0 | 0.00 | 0.00 | 0.00 | 90 | 1011.1 |
| 20260507020053 | 78 | 185 | 1.0 | 2.0 | 0.00 | 0.00 | 0.00 | 89 | 1010.8 |
| 20260507014559 | 78 | 189 | 1.0 | 3.0 | 0.00 | 0.00 | 0.00 | 89 | 1010.7 |
| 20260507013056 | 79 | 187 | 2.0 | 5.0 | 0.00 | 0.00 | 0.00 | 88 | 1010.4 |
| 20260507011559 | 79 | 171 | 0.0 | 4.0 | 0.00 | 0.00 | 0.00 | 88 | 1010.4 |
| 20260507010057 | 79 | 237 | 1.0 | 2.0 | 0.00 | 0.00 | 0.00 | 87 | 1010.2 |
| 20260507004553 | 80 | 186 | 1.0 | 2.0 | 0.00 | 0.00 | 0.00 | 87 | 1010.1 |
| 20260507003059 | 80 | 160 | 0.0 | 3.0 | 0.00 | 0.00 | 0.00 | 86 | 1009.9 |
| 20260507001606 | 80 | 192 | 1.0 | 4.0 | 0.00 | 0.00 | 0.00 | 86 | 1009.7 |
| 20260507000058 | 80 | 153 | 1.0 | 3.0 | 0.00 | 0.00 | 0.00 | 85 | 1009.7 |
| 20260506234624 | 81 | 208 | 1.0 | 4.0 | 0.00 | 0.00 | 0.00 | 84 | 1009.7 |
| 20260506233100 | 81 | 220 | 1.0 | 8.0 | 0.00 | 0.00 | 0.00 | 83 | 1009.6 |
| 20260506231554 | 82 | 205 | 1.0 | 5.0 | 0.00 | 0.00 | 0.00 | 82 | 1009.6 |
| 20260506230058 | 83 | 214 | 1.0 | 4.0 | 0.00 | 0.00 | 0.00 | 81 | 1009.3 |